createdAt,value
2019-05-23T00:01:42.881Z,15.82
2019-05-23T00:04:28.669Z,15.48
2019-05-23T00:06:59.254Z,15.34
2019-05-23T00:09:28.104Z,15.30
2019-05-23T00:12:04.308Z,15.32
2019-05-23T00:14:40.370Z,15.45
2019-05-23T00:17:12.681Z,15.54
2019-05-23T00:19:42.280Z,15.55
2019-05-23T00:22:11.547Z,15.67
2019-05-23T00:24:42.491Z,15.73
2019-05-23T00:27:12.838Z,15.83
2019-05-23T00:29:43.191Z,15.72
2019-05-23T00:32:23.251Z,15.63
2019-05-23T00:34:53.395Z,15.59
2019-05-23T00:37:23.823Z,15.54
2019-05-23T00:39:53.219Z,15.47
2019-05-23T00:42:22.576Z,15.51
2019-05-23T00:44:52.135Z,15.53
2019-05-23T00:47:21.226Z,15.45
2019-05-23T00:49:50.381Z,15.46
2019-05-23T00:52:19.134Z,15.27
2019-05-23T00:54:48.322Z,15.08
2019-05-23T00:57:18.740Z,15.03
2019-05-23T00:59:49.094Z,15.04
2019-05-23T01:02:17.959Z,14.98
2019-05-23T01:04:47.614Z,14.98
2019-05-23T01:07:16.539Z,14.97
2019-05-23T01:09:46.525Z,14.96
2019-05-23T01:12:15.850Z,14.87
2019-05-23T01:14:44.370Z,14.88
2019-05-23T01:17:13.664Z,15.00
2019-05-23T01:19:43.125Z,14.95
2019-05-23T01:22:14.708Z,14.82
2019-05-23T01:24:47.442Z,14.77
2019-05-23T01:27:17.226Z,14.83
2019-05-23T01:29:50.006Z,14.88
2019-05-23T01:32:26.131Z,14.80
2019-05-23T01:34:55.513Z,14.63
2019-05-23T01:37:24.420Z,14.62
2019-05-23T01:39:53.490Z,14.50
2019-05-23T01:42:23.973Z,14.51
2019-05-23T01:44:55.269Z,14.46
2019-05-23T01:47:24.149Z,14.47
2019-05-23T01:49:53.204Z,14.41
2019-05-23T01:52:21.676Z,14.38
2019-05-23T01:54:50.746Z,14.31
2019-05-23T01:57:19.818Z,14.30
2019-05-23T02:00:06.133Z,14.34
2019-05-23T02:02:21.070Z,14.26
2019-05-23T02:04:50.806Z,14.31
2019-05-23T02:07:31.733Z,14.37
2019-05-23T02:10:00.185Z,14.27
2019-05-23T02:12:29.037Z,14.03
2019-05-23T02:14:57.478Z,13.98
2019-05-23T02:17:26.336Z,14.06
2019-05-23T02:19:55.346Z,14.10
2019-05-23T02:22:24.753Z,14.16
2019-05-23T02:24:53.919Z,13.94
2019-05-23T02:27:23.362Z,13.71
2019-05-23T02:29:51.983Z,13.45
2019-05-23T02:32:20.530Z,13.41
2019-05-23T02:34:49.096Z,13.28
2019-05-23T02:37:35.486Z,13.29
2019-05-23T02:40:25.392Z,13.41
2019-05-23T02:43:05.094Z,13.63
2019-05-23T02:45:44.971Z,13.71
2019-05-23T02:48:25.128Z,13.81
2019-05-23T02:50:58.268Z,13.81
2019-05-23T02:53:30.628Z,13.63
2019-05-23T02:56:02.375Z,13.51
2019-05-23T02:59:01.772Z,13.57
2019-05-23T03:01:46.821Z,13.56
2019-05-23T03:04:17.413Z,13.65
2019-05-23T03:06:46.105Z,13.62
2019-05-23T03:09:16.713Z,13.52
2019-05-23T03:11:48.977Z,13.51
2019-05-23T03:14:19.250Z,13.40
2019-05-23T03:16:52.418Z,13.32
2019-05-23T03:19:23.935Z,13.26
2019-05-23T03:21:54.450Z,13.36
2019-05-23T03:24:25.022Z,13.36
2019-05-23T03:27:02.630Z,13.35
2019-05-23T03:29:39.480Z,13.33
2019-05-23T03:32:12.948Z,13.47
2019-05-23T03:34:43.021Z,13.43
2019-05-23T03:37:11.619Z,13.37
2019-05-23T03:39:40.067Z,13.35
2019-05-23T03:42:09.586Z,13.23
2019-05-23T03:44:39.086Z,13.22
2019-05-23T03:47:09.941Z,13.18
2019-05-23T03:49:39.286Z,13.20
2019-05-23T03:52:10.331Z,13.12
2019-05-23T03:54:40.046Z,13.35
2019-05-23T03:57:08.966Z,13.28
2019-05-23T03:59:38.884Z,13.21
2019-05-23T04:02:09.073Z,13.28
2019-05-23T04:04:39.551Z,13.25
2019-05-23T04:07:08.246Z,13.18
2019-05-23T04:09:36.773Z,13.17
2019-05-23T04:12:05.971Z,13.07
2019-05-23T04:14:35.334Z,13.08
2019-05-23T04:17:04.417Z,13.31
2019-05-23T04:19:33.238Z,13.14
2019-05-23T04:22:01.763Z,13.05
2019-05-23T04:24:30.733Z,13.17
2019-05-23T04:26:59.297Z,13.21
2019-05-23T04:29:28.539Z,13.02
2019-05-23T04:32:07.656Z,13.22
2019-05-23T04:34:27.224Z,13.29
2019-05-23T04:36:55.754Z,13.40
2019-05-23T04:39:24.587Z,13.26
2019-05-23T04:41:53.179Z,13.12
2019-05-23T04:44:21.697Z,12.94
2019-05-23T04:46:50.413Z,12.99
2019-05-23T04:49:18.818Z,13.20
2019-05-23T04:51:47.781Z,13.11
2019-05-23T04:54:17.143Z,13.00
2019-05-23T04:56:46.736Z,13.14
2019-05-23T04:59:16.424Z,13.29
2019-05-23T05:01:46.441Z,13.40
2019-05-23T05:04:16.718Z,13.56
2019-05-23T05:06:48.219Z,13.54
2019-05-23T05:09:25.067Z,13.42
2019-05-23T05:11:54.185Z,13.43
2019-05-23T05:14:22.732Z,13.52
2019-05-23T05:16:51.939Z,13.67
2019-05-23T05:19:20.787Z,13.75
2019-05-23T05:21:50.540Z,13.69
2019-05-23T05:24:19.311Z,13.61
2019-05-23T05:26:50.686Z,13.53
2019-05-23T05:29:19.138Z,13.64
2019-05-23T05:31:47.589Z,13.83
2019-05-23T05:34:16.262Z,14.02
2019-05-23T05:36:44.840Z,14.17
2019-05-23T05:39:14.004Z,14.20
2019-05-23T05:41:43.339Z,14.25
2019-05-23T05:44:12.302Z,14.31
2019-05-23T05:46:42.566Z,14.36
2019-05-23T05:49:12.557Z,14.46
2019-05-23T05:51:41.309Z,14.57
2019-05-23T05:54:10.162Z,14.68
2019-05-23T05:56:38.604Z,14.90
2019-05-23T05:59:07.218Z,14.98
2019-05-23T06:01:36.565Z,14.96
2019-05-23T06:04:05.319Z,15.09
2019-05-23T06:06:37.911Z,15.12
2019-05-23T06:09:09.506Z,15.20
2019-05-23T06:11:38.003Z,15.34
2019-05-23T06:14:07.529Z,15.47
2019-05-23T06:16:36.141Z,15.59
2019-05-23T06:19:06.444Z,15.67
2019-05-23T06:21:35.154Z,15.81
2019-05-23T06:24:04.719Z,15.92
2019-05-23T06:26:33.605Z,15.98
2019-05-23T06:29:02.220Z,16.04
2019-05-23T06:31:32.032Z,16.10
2019-05-23T06:34:00.680Z,16.15
2019-05-23T06:36:29.654Z,16.21
2019-05-23T06:38:58.094Z,16.24
2019-05-23T06:41:26.852Z,16.31
2019-05-23T06:43:55.452Z,16.49
2019-05-23T06:46:24.265Z,16.64
2019-05-23T06:48:52.759Z,16.79
2019-05-23T06:51:22.535Z,16.70
2019-05-23T06:53:51.320Z,16.89
2019-05-23T06:56:19.767Z,17.00
2019-05-23T06:58:48.642Z,17.05
2019-05-23T07:01:17.148Z,17.25
2019-05-23T07:03:45.701Z,17.25
2019-05-23T07:06:17.173Z,17.34
2019-05-23T07:08:45.876Z,17.42
2019-05-23T07:11:15.830Z,17.49
2019-05-23T07:13:46.167Z,17.67
2019-05-23T07:16:14.604Z,17.84
2019-05-23T07:18:44.469Z,17.83
2019-05-23T07:21:13.554Z,17.87
2019-05-23T07:23:41.994Z,18.03
2019-05-23T07:26:11.144Z,18.02
2019-05-23T07:28:39.677Z,18.16
2019-05-23T07:31:09.000Z,18.22
2019-05-23T07:33:37.812Z,18.40
2019-05-23T07:36:06.325Z,18.49
2019-05-23T07:38:34.721Z,18.48
2019-05-23T07:41:03.860Z,18.64
2019-05-23T07:43:32.305Z,18.66
2019-05-23T07:46:01.513Z,18.87
2019-05-23T07:48:31.366Z,18.96
2019-05-23T07:50:59.878Z,19.09
2019-05-23T07:53:43.981Z,19.23
2019-05-23T07:56:14.311Z,19.01
2019-05-23T07:58:42.798Z,19.15
2019-05-23T08:01:18.761Z,19.03
2019-05-23T08:03:49.970Z,19.39
2019-05-23T08:06:18.413Z,19.67
2019-05-23T08:08:47.425Z,19.62
2019-05-23T08:11:15.882Z,19.96
2019-05-23T08:13:44.320Z,20.04
2019-05-23T08:16:12.935Z,19.78
2019-05-23T08:18:42.428Z,19.87
2019-05-23T08:21:10.961Z,20.27
2019-05-23T08:23:39.628Z,20.13
2019-05-23T08:26:08.080Z,20.42
2019-05-23T08:28:36.874Z,20.65
2019-05-23T08:31:06.745Z,20.65
2019-05-23T08:33:35.880Z,20.62
2019-05-23T08:36:05.352Z,20.90
2019-05-23T08:38:33.953Z,21.06
2019-05-23T08:41:02.449Z,20.74
2019-05-23T08:43:31.037Z,20.63
2019-05-23T08:45:59.675Z,20.79
2019-05-23T08:48:28.745Z,20.55
2019-05-23T08:50:57.212Z,20.55
2019-05-23T08:53:26.086Z,20.78
2019-05-23T08:55:55.232Z,21.17
2019-05-23T08:58:23.824Z,21.41
2019-05-23T09:00:52.247Z,21.62
2019-05-23T09:03:21.402Z,21.57
2019-05-23T09:05:50.034Z,21.45
2019-05-23T09:08:19.611Z,21.59
2019-05-23T09:10:49.033Z,21.75
2019-05-23T09:13:17.613Z,21.91
2019-05-23T09:15:46.160Z,22.21
2019-05-23T09:18:14.809Z,22.24
2019-05-23T09:20:43.366Z,22.41
2019-05-23T09:23:12.084Z,22.44
2019-05-23T09:25:40.514Z,21.90
2019-05-23T09:28:09.721Z,22.09
2019-05-23T09:30:38.316Z,22.41
2019-05-23T09:33:07.185Z,22.31
2019-05-23T09:35:36.129Z,22.56
2019-05-23T09:38:05.138Z,22.63
2019-05-23T09:40:33.772Z,22.53
2019-05-23T09:43:02.252Z,22.53
2019-05-23T09:45:30.682Z,22.60
2019-05-23T09:47:59.297Z,22.69
2019-05-23T09:50:27.856Z,23.18
2019-05-23T09:52:57.519Z,22.61
2019-05-23T09:55:26.498Z,22.63
2019-05-23T09:57:54.927Z,22.94
2019-05-23T10:00:25.352Z,23.06
2019-05-23T10:02:54.193Z,23.14
2019-05-23T10:05:40.638Z,23.10
2019-05-23T10:07:52.984Z,22.94
2019-05-23T10:10:23.500Z,23.38
2019-05-23T10:12:51.966Z,23.16
2019-05-23T10:15:25.203Z,23.40
2019-05-23T10:18:00.569Z,23.47
2019-05-23T10:20:30.082Z,23.34
2019-05-23T10:22:58.540Z,23.23
2019-05-23T10:25:26.962Z,23.97
2019-05-23T10:27:55.936Z,23.78
2019-05-23T10:30:25.056Z,23.31
2019-05-23T10:32:53.531Z,23.97
2019-05-23T10:35:22.597Z,24.39
2019-05-23T10:37:51.285Z,24.54
2019-05-23T10:40:20.110Z,24.92
2019-05-23T10:42:48.768Z,25.03
2019-05-23T10:45:18.735Z,24.77
2019-05-23T10:47:47.176Z,25.20
2019-05-23T10:50:16.111Z,25.05
2019-05-23T10:52:44.553Z,25.32
2019-05-23T10:55:13.146Z,25.53
2019-05-23T10:57:41.577Z,26.62
2019-05-23T11:00:13.696Z,26.97
2019-05-23T11:02:43.126Z,27.64
2019-05-23T11:05:14.091Z,28.20
2019-05-23T11:07:43.675Z,29.03
2019-05-23T11:10:17.155Z,29.58
2019-05-23T11:12:45.664Z,29.63
2019-05-23T11:15:14.263Z,28.15
2019-05-23T11:17:43.061Z,28.43
2019-05-23T11:20:13.306Z,28.15
2019-05-23T11:22:42.450Z,27.29
2019-05-23T11:25:13.077Z,28.23
2019-05-23T11:27:41.682Z,27.89
2019-05-23T11:30:12.731Z,27.80
2019-05-23T11:32:41.261Z,27.69
2019-05-23T11:35:09.943Z,27.75
2019-05-23T11:37:41.746Z,26.34
2019-05-23T11:40:09.002Z,26.24
2019-05-23T11:42:37.496Z,26.83
2019-05-23T11:45:07.062Z,26.30
2019-05-23T11:47:35.936Z,25.93
2019-05-23T11:50:09.442Z,27.53
2019-05-23T11:52:39.357Z,27.86
2019-05-23T11:55:08.306Z,28.26
2019-05-23T11:57:38.427Z,28.57
2019-05-23T12:00:10.637Z,28.34
2019-05-23T12:02:41.181Z,28.48
2019-05-23T12:05:11.589Z,28.50
2019-05-23T12:07:40.093Z,28.58
2019-05-23T12:10:09.249Z,28.88
2019-05-23T12:12:37.751Z,29.06
2019-05-23T12:15:11.482Z,28.90
2019-05-23T12:17:40.301Z,28.63
2019-05-23T12:20:09.165Z,29.53
2019-05-23T12:22:38.199Z,29.91
2019-05-23T12:25:20.966Z,28.99
2019-05-23T12:27:38.460Z,28.90
2019-05-23T12:30:09.364Z,28.11
2019-05-23T12:32:37.809Z,27.84
2019-05-23T12:35:11.245Z,26.63
2019-05-23T12:37:37.374Z,27.58
2019-05-23T12:40:09.178Z,26.83
2019-05-23T12:42:37.655Z,26.32
2019-05-23T12:45:08.491Z,26.64
2019-05-23T12:47:55.382Z,27.35
2019-05-23T12:50:31.417Z,27.50
2019-05-23T12:53:09.065Z,27.63
2019-05-23T12:55:37.654Z,28.36
2019-05-23T12:58:06.329Z,28.53
2019-05-23T13:00:42.723Z,27.92
2019-05-23T13:03:13.537Z,27.45
2019-05-23T13:05:42.167Z,27.84
2019-05-23T13:08:16.975Z,28.62
2019-05-23T13:10:45.481Z,28.29
2019-05-23T13:13:14.503Z,28.52
2019-05-23T13:15:43.879Z,27.59
2019-05-23T13:18:12.368Z,26.29
2019-05-23T13:20:41.983Z,26.90
2019-05-23T13:23:19.911Z,28.12
2019-05-23T13:25:40.884Z,28.34
2019-05-23T13:28:09.400Z,28.22
2019-05-23T13:30:37.916Z,28.84
2019-05-23T13:33:06.347Z,28.78
2019-05-23T13:35:35.087Z,28.11
2019-05-23T13:38:05.921Z,28.12
2019-05-23T13:40:34.995Z,27.54
2019-05-23T13:43:07.935Z,26.69
2019-05-23T13:45:35.271Z,27.31
2019-05-23T13:48:06.458Z,27.17
2019-05-23T13:50:35.185Z,27.89
2019-05-23T13:53:04.337Z,27.60
2019-05-23T13:55:32.841Z,27.28
2019-05-23T13:58:01.302Z,27.37
2019-05-23T14:00:30.495Z,27.69
2019-05-23T14:02:59.140Z,27.40
2019-05-23T14:05:27.943Z,27.83
2019-05-23T14:08:10.448Z,27.29
2019-05-23T14:10:27.185Z,27.11
2019-05-23T14:12:58.492Z,26.82
2019-05-23T14:15:31.756Z,27.15
2019-05-23T14:18:00.410Z,27.08
2019-05-23T14:20:29.067Z,26.94
2019-05-23T14:23:08.368Z,26.65
2019-05-23T14:25:38.090Z,26.50
2019-05-23T14:28:08.175Z,26.46
2019-05-23T14:30:38.351Z,27.00
2019-05-23T14:33:24.119Z,26.48
2019-05-23T14:35:57.034Z,26.65
2019-05-23T14:38:30.690Z,26.42
2019-05-23T14:40:58.133Z,26.34
2019-05-23T14:43:27.982Z,26.73
2019-05-23T14:46:02.576Z,27.13
2019-05-23T14:48:49.191Z,27.41
2019-05-23T14:51:19.259Z,26.70
2019-05-23T14:53:58.518Z,27.54
2019-05-23T14:56:28.881Z,27.03
2019-05-23T14:58:57.320Z,26.97
2019-05-23T15:01:27.691Z,27.15
2019-05-23T15:03:56.290Z,26.88
2019-05-23T15:06:25.117Z,27.08
2019-05-23T15:08:54.056Z,26.99
2019-05-23T15:11:22.736Z,27.32
2019-05-23T15:13:51.727Z,27.27
2019-05-23T15:16:20.473Z,27.25
2019-05-23T15:18:49.057Z,27.26
2019-05-23T15:21:17.539Z,27.70
2019-05-23T15:23:46.063Z,27.35
2019-05-23T15:26:23.018Z,27.68
2019-05-23T15:28:44.720Z,27.96
2019-05-23T15:31:16.672Z,27.33
2019-05-23T15:33:45.079Z,27.33
2019-05-23T15:36:13.612Z,27.34
2019-05-23T15:38:42.192Z,27.10
2019-05-23T15:41:10.716Z,26.78
2019-05-23T15:43:39.141Z,27.20
2019-05-23T15:46:07.599Z,27.04
2019-05-23T15:48:36.099Z,27.07
2019-05-23T15:51:05.232Z,27.19
2019-05-23T15:53:35.379Z,27.43
2019-05-23T15:56:28.105Z,27.32
2019-05-23T15:59:02.205Z,27.67
2019-05-23T16:01:48.921Z,28.22
2019-05-23T16:04:22.165Z,27.43
2019-05-23T16:06:51.446Z,27.85
2019-05-23T16:09:29.215Z,27.88
2019-05-23T16:11:51.185Z,28.09
2019-05-23T16:14:20.886Z,27.94
2019-05-23T16:16:49.331Z,28.33
2019-05-23T16:19:17.833Z,28.09
2019-05-23T16:21:46.460Z,27.42
2019-05-23T16:24:14.997Z,27.14
2019-05-23T16:26:43.853Z,27.27
2019-05-23T16:29:13.774Z,26.95
2019-05-23T16:31:42.605Z,27.00
2019-05-23T16:34:11.011Z,26.76
2019-05-23T16:36:39.517Z,26.89
2019-05-23T16:39:10.861Z,26.32
2019-05-23T16:41:39.375Z,25.90
2019-05-23T16:44:07.936Z,26.02
2019-05-23T16:46:36.398Z,26.00
2019-05-23T16:49:05.057Z,26.44
2019-05-23T16:51:33.550Z,26.32
2019-05-23T16:54:02.967Z,26.31
2019-05-23T16:56:35.928Z,26.26
2019-05-23T16:59:12.119Z,26.22
2019-05-23T17:01:54.839Z,26.03
2019-05-23T17:04:30.844Z,26.21
2019-05-23T17:07:17.282Z,26.12
2019-05-23T17:10:07.589Z,26.24
2019-05-23T17:12:29.696Z,25.26
2019-05-23T17:15:11.916Z,25.42
2019-05-23T17:18:03.040Z,25.40
2019-05-23T17:20:33.642Z,25.41
2019-05-23T17:23:06.435Z,25.19
2019-05-23T17:25:48.707Z,25.01
2019-05-23T17:28:33.541Z,24.88
2019-05-23T17:31:08.667Z,24.74
2019-05-23T17:33:37.570Z,24.64
2019-05-23T17:36:06.125Z,24.73
2019-05-23T17:38:34.558Z,24.53
2019-05-23T17:41:03.645Z,24.47
2019-05-23T17:43:32.229Z,24.85
2019-05-23T17:46:00.673Z,24.58
2019-05-23T17:48:29.269Z,24.62
2019-05-23T17:50:57.719Z,24.48
2019-05-23T17:53:26.629Z,24.63
2019-05-23T17:55:55.716Z,24.51
2019-05-23T17:58:25.161Z,24.40
2019-05-23T18:00:56.198Z,24.46
2019-05-23T18:03:24.660Z,24.33
2019-05-23T18:05:53.190Z,24.61
2019-05-23T18:08:21.610Z,24.60
2019-05-23T18:10:50.036Z,24.43
2019-05-23T18:13:19.497Z,24.29
2019-05-23T18:15:48.519Z,24.23
2019-05-23T18:18:18.050Z,23.88
2019-05-23T18:20:46.524Z,23.98
2019-05-23T18:23:15.847Z,23.97
2019-05-23T18:25:44.434Z,23.91
2019-05-23T18:28:14.682Z,23.87
2019-05-23T18:30:45.452Z,23.92
2019-05-23T18:33:15.673Z,23.83
2019-05-23T18:35:44.207Z,23.74
2019-05-23T18:38:13.103Z,23.71
2019-05-23T18:40:41.873Z,23.80
2019-05-23T18:43:10.284Z,23.70
2019-05-23T18:45:41.118Z,23.57
2019-05-23T18:48:09.640Z,23.58
2019-05-23T18:50:38.527Z,23.68
2019-05-23T18:53:08.479Z,23.74
2019-05-23T18:55:38.147Z,23.76
2019-05-23T18:58:07.595Z,23.45
2019-05-23T19:00:47.906Z,23.40
2019-05-23T19:03:16.435Z,23.52
2019-05-23T19:05:52.000Z,23.55
2019-05-23T19:08:20.571Z,23.55
2019-05-23T19:10:49.159Z,23.53
2019-05-23T19:13:17.600Z,23.55
2019-05-23T19:15:46.112Z,23.56
2019-05-23T19:18:15.892Z,23.43
2019-05-23T19:20:44.319Z,23.28
2019-05-23T19:23:13.213Z,23.20
2019-05-23T19:25:43.540Z,23.30
2019-05-23T19:28:12.739Z,23.41
2019-05-23T19:30:42.332Z,23.47
2019-05-23T19:33:11.036Z,23.42
2019-05-23T19:35:39.838Z,23.40
2019-05-23T19:38:08.505Z,23.39
2019-05-23T19:40:37.145Z,23.39
2019-05-23T19:43:06.767Z,23.52
2019-05-23T19:45:36.486Z,23.32
2019-05-23T19:48:05.511Z,23.26
2019-05-23T19:50:34.082Z,23.04
2019-05-23T19:53:02.513Z,22.87
2019-05-23T19:55:31.777Z,22.77
2019-05-23T19:58:00.779Z,22.61
2019-05-23T20:00:31.512Z,22.56
2019-05-23T20:03:03.721Z,22.42
2019-05-23T20:05:32.010Z,22.31
2019-05-23T20:08:00.851Z,22.28
2019-05-23T20:10:30.187Z,22.22
2019-05-23T20:12:58.949Z,22.15
2019-05-23T20:15:28.078Z,22.09
2019-05-23T20:17:56.683Z,22.04
2019-05-23T20:20:25.942Z,21.88
2019-05-23T20:22:54.388Z,21.88
2019-05-23T20:25:24.617Z,21.79
2019-05-23T20:27:53.234Z,21.75
2019-05-23T20:30:44.302Z,21.68
2019-05-23T20:33:12.869Z,21.62
2019-05-23T20:35:44.671Z,21.58
2019-05-23T20:38:13.344Z,21.59
2019-05-23T20:40:41.913Z,21.51
2019-05-23T20:43:10.587Z,21.41
2019-05-23T20:45:39.419Z,21.37
2019-05-23T20:48:08.545Z,21.32
2019-05-23T20:50:37.075Z,21.27
2019-05-23T20:53:05.780Z,21.20
2019-05-23T20:55:34.696Z,21.11
2019-05-23T20:58:04.191Z,21.03
2019-05-23T21:00:34.352Z,20.99
2019-05-23T21:03:03.806Z,20.94
2019-05-23T21:05:32.566Z,20.83
2019-05-23T21:08:01.084Z,20.81
2019-05-23T21:10:47.256Z,20.78
2019-05-23T21:13:15.902Z,20.76
2019-05-23T21:15:51.176Z,20.69
2019-05-23T21:18:17.098Z,20.67
2019-05-23T21:20:45.589Z,20.64
2019-05-23T21:23:14.248Z,20.58
2019-05-23T21:25:44.363Z,20.52
2019-05-23T21:28:12.855Z,20.51
2019-05-23T21:30:41.511Z,20.43
2019-05-23T21:33:10.120Z,20.34
2019-05-23T21:35:38.574Z,20.25
2019-05-23T21:38:07.039Z,20.21
2019-05-23T21:40:38.617Z,20.17
2019-05-23T21:43:07.219Z,20.23
2019-05-23T21:45:35.636Z,19.99
2019-05-23T21:48:04.463Z,19.89
2019-05-23T21:50:33.206Z,19.90
2019-05-23T21:53:02.010Z,19.88
2019-05-23T21:55:43.962Z,19.93
2019-05-23T21:58:14.146Z,20.03
2019-05-23T22:01:07.913Z,19.95
2019-05-23T22:03:57.678Z,19.94
2019-05-23T22:06:30.527Z,19.77
2019-05-23T22:08:59.415Z,19.72
2019-05-23T22:11:27.831Z,19.70
2019-05-23T22:13:56.460Z,19.78
2019-05-23T22:16:25.060Z,19.86
2019-05-23T22:18:53.469Z,19.71
2019-05-23T22:21:22.238Z,19.45
2019-05-23T22:23:50.671Z,19.33
2019-05-23T22:26:19.139Z,19.30
2019-05-23T22:28:47.582Z,19.39
2019-05-23T22:31:16.163Z,19.38
2019-05-23T22:33:52.172Z,19.37
2019-05-23T22:36:22.411Z,19.44
2019-05-23T22:38:50.923Z,19.42
2019-05-23T22:41:19.444Z,19.46
2019-05-23T22:43:51.325Z,19.41
2019-05-23T22:46:21.450Z,19.36
2019-05-23T22:48:49.884Z,19.29
2019-05-23T22:51:18.355Z,19.24
2019-05-23T22:53:46.781Z,18.95
2019-05-23T22:56:15.216Z,18.78
2019-05-23T22:58:43.914Z,18.64
2019-05-23T23:01:12.365Z,18.66
2019-05-23T23:03:40.817Z,18.72
2019-05-23T23:06:09.731Z,18.76
2019-05-23T23:08:38.419Z,18.68
2019-05-23T23:11:06.819Z,18.56
2019-05-23T23:13:38.825Z,18.38
2019-05-23T23:16:05.744Z,18.17
2019-05-23T23:18:34.188Z,18.03
2019-05-23T23:21:02.613Z,18.01
2019-05-23T23:23:31.078Z,18.14
2019-05-23T23:25:59.507Z,18.25
2019-05-23T23:28:28.117Z,18.43
2019-05-23T23:30:56.606Z,18.48
2019-05-23T23:33:25.081Z,18.58
2019-05-23T23:35:53.482Z,18.55
2019-05-23T23:38:21.929Z,18.50
2019-05-23T23:40:50.352Z,18.31
2019-05-23T23:43:18.825Z,18.22
2019-05-23T23:46:05.362Z,18.29
2019-05-23T23:48:51.271Z,18.17
2019-05-23T23:51:37.428Z,18.17
2019-05-23T23:54:23.564Z,18.19
2019-05-23T23:57:10.002Z,18.14
2019-05-23T23:59:37.714Z,18.05
